Time;durP1;ratioP1;P1;durP2;ratioP2;P2;SDS_P1;SDS_P2;PMS_P1;PMS_P2;Temp;Humidity;BMP_temperature;BMP_pressure;BME280_temperature;BME280_humidity;BME280_pressure;Samples;Min_cycle;Max_cycle;Signal;HPM_P1;HPM_P2
2023/03/17 00:02:28;;;;;;;;;46.80;39.20;;;;;5.02;45.61;99537.22;6280409;27;98396;-63
2023/03/17 00:05:35;;;;;;;;;49.20;40.80;;;;;5.04;45.37;99538.72;6281004;27;96997;-63
2023/03/17 00:08:38;;;;;;;;;49.00;41.00;;;;;5.03;45.41;99529.03;6282967;27;98669;-62
2023/03/17 00:11:41;;;;;;;;;51.50;41.00;;;;;5.02;45.50;99527.38;6278387;27;96406;-63
2023/03/17 00:14:45;;;;;;;;;49.00;40.00;;;;;5.01;45.65;99527.53;6207564;28;96283;-63
2023/03/17 00:17:49;;;;;;;;;49.60;40.60;;;;;4.99;45.80;99522.34;6264781;27;97262;-64
2023/03/17 00:20:54;;;;;;;;;49.20;40.80;;;;;4.97;45.51;99527.03;6215761;28;96319;-63
2023/03/17 00:23:58;;;;;;;;;47.00;39.00;;;;;4.95;45.40;99520.19;6284369;27;98928;-63
2023/03/17 00:27:03;;;;;;;;;48.60;38.40;;;;;4.94;45.67;99527.38;6215466;28;96311;-64
2023/03/17 00:30:12;;;;;;;;;48.60;40.00;;;;;4.91;45.64;99519.72;6283146;27;96505;-63
2023/03/17 00:33:16;;;;;;;;;47.00;38.75;;;;;4.92;45.52;99520.53;6277791;27;96936;-63
2023/03/17 00:36:23;;;;;;;;;44.40;36.00;;;;;4.98;45.37;99525.22;6260634;27;96308;-63
2023/03/17 00:39:26;;;;;;;;;46.60;37.60;;;;;5.02;45.52;99530.03;6195264;28;96308;-63
2023/03/17 00:42:29;;;;;;;;;43.60;35.60;;;;;5.05;45.27;99527.03;6259584;27;98479;-63
2023/03/17 00:45:33;;;;;;;;;43.40;36.00;;;;;5.09;45.11;99524.81;6203163;28;96254;-64
2023/03/17 00:48:37;;;;;;;;;48.40;39.00;;;;;5.07;45.34;99517.00;6201878;28;96303;-63
2023/03/17 00:51:42;;;;;;;;;45.60;37.20;;;;;5.07;45.19;99525.03;6257548;27;98510;-63
2023/03/17 00:54:45;;;;;;;;;47.00;36.00;;;;;5.07;45.04;99525.03;6283956;27;96345;-64
2023/03/17 00:57:49;;;;;;;;;47.00;38.20;;;;;5.10;45.42;99529.19;6208594;28;96572;-63
2023/03/17 01:00:52;;;;;;;;;48.00;39.20;;;;;5.13;45.29;99520.84;6205203;28;96383;-63
2023/03/17 01:03:56;;;;;;;;;49.25;40.00;;;;;5.06;45.35;99519.84;6201428;28;97529;-64
2023/03/17 01:07:00;;;;;;;;;47.20;38.40;;;;;4.98;45.72;99520.72;6257554;27;96363;-64
2023/03/17 01:10:13;;;;;;;;;47.00;38.00;;;;;4.96;45.67;99517.34;6184005;28;96168;-64
2023/03/17 01:13:16;;;;;;;;;38.25;33.00;;;;;4.89;45.78;99521.69;6189850;28;96942;-63
2023/03/17 01:16:20;;;;;;;;;45.40;35.40;;;;;4.76;46.01;99514.22;6283172;27;96821;-64
2023/03/17 01:19:24;;;;;;;;;45.00;37.40;;;;;4.59;46.01;99498.41;6186365;28;96269;-63
2023/03/17 01:22:28;;;;;;;;;45.80;36.00;;;;;4.68;45.85;99510.72;6266104;27;96435;-65
2023/03/17 01:25:32;;;;;;;;;45.40;37.00;;;;;4.66;46.04;99518.06;6185670;27;97607;-64
2023/03/17 01:28:36;;;;;;;;;47.00;38.00;;;;;4.63;46.27;99521.09;6184590;28;97756;-64
2023/03/17 01:31:39;;;;;;;;;46.00;36.00;;;;;4.60;46.27;99527.59;6253635;27;96378;-64
2023/03/17 01:34:42;;;;;;;;;47.00;38.40;;;;;4.62;46.17;99519.41;6244561;27;98461;-65
2023/03/17 01:37:47;;;;;;;;;46.40;36.40;;;;;4.61;45.97;99523.06;6254925;27;96328;-65
2023/03/17 01:40:52;;;;;;;;;45.00;38.00;;;;;4.60;46.22;99518.72;6260102;27;97211;-64
2023/03/17 01:43:55;;;;;;;;;45.00;36.80;;;;;4.66;46.15;99510.06;6266345;27;98589;-65
2023/03/17 01:46:59;;;;;;;;;43.20;36.00;;;;;4.62;45.98;99506.91;6276353;27;96472;-64
2023/03/17 01:50:06;;;;;;;;;46.50;38.50;;;;;4.56;46.27;99504.91;6273876;27;96272;-64
2023/03/17 01:53:12;;;;;;;;;46.00;36.00;;;;;4.53;46.15;99504.41;6186781;28;96984;-64
2023/03/17 01:56:16;;;;;;;;;45.00;36.75;;;;;4.49;46.37;99498.56;6278719;27;98035;-64
2023/03/17 01:59:25;;;;;;;;;45.80;37.00;;;;;4.44;46.73;99505.41;6277355;27;96513;-64
2023/03/17 02:02:34;;;;;;;;;47.00;38.00;;;;;4.47;46.72;99502.41;6279023;27;96335;-64
2023/03/17 02:05:39;;;;;;;;;45.60;37.40;;;;;4.52;46.57;99502.72;6271238;27;96275;-64
2023/03/17 02:08:45;;;;;;;;;42.60;34.00;;;;;4.54;46.19;99492.72;6251563;27;96729;-65
2023/03/17 02:11:49;;;;;;;;;43.00;35.60;;;;;4.52;46.49;99494.72;6206655;27;96767;-65
2023/03/17 02:14:52;;;;;;;;;48.50;38.75;;;;;4.53;46.23;99497.22;6303280;27;96882;-64
2023/03/17 02:17:56;;;;;;;;;45.00;37.00;;;;;4.53;46.33;99491.88;6268445;27;97598;-65
2023/03/17 02:21:29;;;;;;;;;45.75;36.75;;;;;4.69;45.81;99489.19;6217667;27;96688;-65
2023/03/17 02:24:37;;;;;;;;;47.00;40.00;;;;;4.77;45.66;99483.00;6295723;27;96413;-64
2023/03/17 02:27:44;;;;;;;;;45.40;37.40;;;;;4.61;45.88;99461.66;6269268;27;96238;-64
2023/03/17 02:30:47;;;;;;;;;47.00;38.20;;;;;4.73;46.03;99479.00;6199550;28;96278;-64
2023/03/17 02:33:52;;;;;;;;;43.33;36.00;;;;;4.75;45.87;99480.50;6255494;27;98520;-65
2023/03/17 02:36:55;;;;;;;;;43.50;35.00;;;;;4.79;45.25;99492.50;6259173;27;96988;-65
2023/03/17 02:40:01;;;;;;;;;41.00;34.80;;;;;4.71;45.08;99468.47;6266853;27;96478;-65
2023/03/17 02:43:04;;;;;;;;;44.40;35.20;;;;;4.83;44.74;99471.66;6185637;28;96946;-64
2023/03/17 02:46:08;;;;;;;;;42.25;35.00;;;;;4.89;44.74;99481.63;6238784;27;96481;-64
2023/03/17 02:49:11;;;;;;;;;45.00;36.00;;;;;4.84;44.98;99486.66;6268862;27;96240;-64
2023/03/17 02:52:15;;;;;;;;;41.60;34.60;;;;;4.73;44.87;99484.34;6194863;28;96720;-64
2023/03/17 02:55:19;;;;;;;;;42.00;34.60;;;;;4.68;45.34;99482.19;6199208;28;96660;-64
2023/03/17 02:58:22;;;;;;;;;39.40;33.20;;;;;4.67;45.02;99474.34;6252580;27;96283;-64
2023/03/17 03:01:26;;;;;;;;;38.40;32.60;;;;;4.69;44.89;99481.16;6200166;28;96280;-64
2023/03/17 03:04:29;;;;;;;;;42.00;35.00;;;;;4.64;45.12;99483.50;6210462;28;96319;-65
2023/03/17 03:07:33;;;;;;;;;40.40;34.00;;;;;4.54;45.21;99468.69;6278470;27;96242;-65
2023/03/17 03:10:37;;;;;;;;;40.00;34.40;;;;;4.54;45.21;99479.38;6193902;28;96281;-64
2023/03/17 03:13:41;;;;;;;;;39.00;33.20;;;;;4.48;45.41;99470.19;6252758;27;96342;-65
2023/03/17 03:16:44;;;;;;;;;42.40;36.00;;;;;4.42;45.65;99472.69;6185465;28;96632;-64
2023/03/17 03:19:48;;;;;;;;;40.80;34.40;;;;;4.45;45.41;99486.53;6266477;27;96271;-64
2023/03/17 03:22:51;;;;;;;;;39.00;33.00;;;;;4.34;45.42;99494.91;6258997;27;99390;-64
2023/03/17 03:25:56;;;;;;;;;40.40;33.40;;;;;4.28;45.75;99491.06;6191069;28;96558;-62
2023/03/17 03:29:00;;;;;;;;;37.00;33.00;;;;;4.31;46.10;99492.56;6256069;27;96278;-64
2023/03/17 03:32:03;;;;;;;;;38.80;33.00;;;;;4.29;46.28;99482.06;6209533;28;96531;-65
2023/03/17 03:35:08;;;;;;;;;34.40;32.20;;;;;4.31;46.30;99481.88;6209581;28;96476;-64
2023/03/17 03:38:12;;;;;;;;;38.50;33.75;;;;;4.29;46.42;99484.72;6277340;27;99213;-64
2023/03/17 03:41:17;;;;;;;;;33.80;31.40;;;;;4.29;46.61;99481.22;6209261;28;96908;-64
2023/03/17 03:44:20;;;;;;;;;38.00;33.00;;;;;4.29;46.24;99486.56;6195431;28;96469;-64
2023/03/17 03:47:23;;;;;;;;;41.80;34.60;;;;;4.26;46.52;99469.03;6187491;28;96310;-64
2023/03/17 03:50:26;;;;;;;;;40.50;35.00;;;;;4.24;46.52;99463.03;6277402;27;96593;-65
2023/03/17 03:53:30;;;;;;;;;39.25;33.25;;;;;4.30;46.58;99458.88;6208268;28;96330;-64
2023/03/17 03:56:34;;;;;;;;;45.00;37.00;;;;;4.30;46.84;99466.88;6209911;28;96823;-65
2023/03/17 03:59:38;;;;;;;;;43.20;34.20;;;;;4.28;46.96;99485.72;6275594;27;96634;-64
2023/03/17 04:02:43;;;;;;;;;39.60;33.60;;;;;4.26;46.82;99486.88;6258943;27;96966;-65
2023/03/17 04:05:46;;;;;;;;;41.60;33.60;;;;;4.26;47.22;99486.88;6209706;27;96297;-64
2023/03/17 04:08:50;;;;;;;;;47.00;38.00;;;;;4.22;47.16;99485.56;6209520;28;96373;-64
2023/03/17 04:11:55;;;;;;;;;47.00;39.00;;;;;4.21;47.02;99486.53;6191574;28;96588;-64
2023/03/17 04:14:58;;;;;;;;;45.00;37.00;;;;;4.21;47.68;99486.53;6260071;27;97320;-65
2023/03/17 04:18:01;;;;;;;;;47.00;38.00;;;;;4.17;47.57;99479.88;6185907;28;96610;-65
2023/03/17 04:21:05;;;;;;;;;46.00;38.00;;;;;4.14;47.63;99483.72;6255176;27;97310;-63
2023/03/17 04:24:08;;;;;;;;;45.60;38.00;;;;;4.12;47.75;99483.03;6273307;27;99048;-64
2023/03/17 04:27:14;;;;;;;;;46.00;37.80;;;;;4.09;48.04;99479.88;6207740;28;96387;-65
2023/03/17 04:30:18;;;;;;;;;46.20;36.40;;;;;4.07;48.03;99469.38;6208069;28;96403;-65
2023/03/17 04:33:21;;;;;;;;;47.00;36.00;;;;;4.05;48.18;99486.56;6248118;27;98393;-65
2023/03/17 04:36:24;;;;;;;;;43.20;35.20;;;;;4.02;48.29;99490.38;6268161;27;98748;-64
2023/03/17 04:39:28;;;;;;;;;46.60;38.00;;;;;4.04;47.96;99490.22;6272177;27;96448;-63
2023/03/17 04:42:33;;;;;;;;;48.40;39.00;;;;;3.99;48.17;99482.72;6281840;27;96594;-65
2023/03/17 04:45:36;;;;;;;;;46.75;38.75;;;;;3.96;48.23;99495.56;6204015;28;96406;-64
2023/03/17 04:48:40;;;;;;;;;47.80;39.20;;;;;3.96;48.33;99493.69;6206733;28;96528;-65
2023/03/17 04:51:43;;;;;;;;;45.00;38.00;;;;;3.93;48.60;99486.03;6208118;27;96762;-64
2023/03/17 04:54:46;;;;;;;;;48.60;39.00;;;;;3.93;48.49;99492.19;6208484;28;96387;-65
2023/03/17 04:57:51;;;;;;;;;45.60;36.60;;;;;3.95;48.82;99486.72;6187503;28;96988;-65
2023/03/17 05:00:55;;;;;;;;;47.40;38.80;;;;;3.92;48.75;99473.69;6255123;27;98330;-64
2023/03/17 05:03:58;;;;;;;;;50.00;41.00;;;;;3.95;48.79;99478.72;6251620;27;96530;-65
2023/03/17 05:07:02;;;;;;;;;51.40;40.00;;;;;4.01;48.22;99479.88;6236824;27;98448;-65
2023/03/17 05:10:06;;;;;;;;;49.50;41.50;;;;;3.98;48.64;99470.38;6188024;28;97565;-64
2023/03/17 05:13:11;;;;;;;;;50.60;42.40;;;;;3.98;48.67;99473.03;6200508;28;96317;-64
2023/03/17 05:16:15;;;;;;;;;51.00;41.00;;;;;4.01;48.87;99470.03;6275625;27;96443;-65
2023/03/17 05:19:18;;;;;;;;;50.00;40.00;;;;;4.09;49.02;99477.22;6244126;27;96615;-65
2023/03/17 05:22:21;;;;;;;;;50.00;42.00;;;;;4.21;49.14;99481.19;6207561;28;96316;-64
2023/03/17 05:25:25;;;;;;;;;55.00;44.00;;;;;4.25;48.92;99480.69;6207552;28;96214;-64
2023/03/17 05:28:29;;;;;;;;;52.75;43.00;;;;;4.37;48.92;99483.88;6207797;28;96390;-64
2023/03/17 05:31:33;;;;;;;;;52.00;43.00;;;;;4.50;48.81;99492.22;6272052;27;96998;-64
2023/03/17 05:34:36;;;;;;;;;52.60;43.40;;;;;4.62;48.72;99490.03;6243431;27;96649;-64
2023/03/17 05:37:39;;;;;;;;;52.40;42.40;;;;;4.71;48.73;99489.84;6197954;27;96567;-63
2023/03/17 05:40:43;;;;;;;;;54.20;44.00;;;;;4.88;48.25;99506.69;6218185;27;96279;-65
2023/03/17 05:43:48;;;;;;;;;55.40;44.00;;;;;5.04;48.32;99503.97;6192415;28;97276;-64
2023/03/17 05:46:51;;;;;;;;;56.00;44.00;;;;;5.20;47.93;99495.91;6199781;28;96947;-64
2023/03/17 05:49:54;;;;;;;;;54.60;43.00;;;;;5.38;47.82;99498.34;6205066;28;97305;-64
2023/03/17 05:52:58;;;;;;;;;55.20;44.80;;;;;5.56;47.33;99496.25;6201598;28;96634;-63
2023/03/17 05:56:01;;;;;;;;;56.00;45.20;;;;;5.83;47.11;99491.41;6265870;27;96476;-63
2023/03/17 05:59:07;;;;;;;;;55.00;44.00;;;;;6.03;46.91;99492.66;6194895;28;96355;-64
2023/03/17 06:02:11;;;;;;;;;56.60;46.00;;;;;6.26;46.54;99498.00;6188721;28;96899;-64
2023/03/17 06:05:15;;;;;;;;;53.80;43.20;;;;;6.49;46.01;99504.19;6206122;28;96205;-64
2023/03/17 06:08:18;;;;;;;;;55.40;44.40;;;;;6.67;45.53;99493.97;6192465;28;97045;-64
2023/03/17 06:11:21;;;;;;;;;53.40;44.00;;;;;6.95;45.20;99494.19;6259195;27;96700;-64
2023/03/17 06:14:26;;;;;;;;;55.00;44.00;;;;;7.17;44.83;99497.81;6261276;27;98973;-64
2023/03/17 06:17:30;;;;;;;;;57.40;45.60;;;;;7.42;44.32;99501.03;6256565;27;96671;-64
2023/03/17 06:20:33;;;;;;;;;56.40;45.00;;;;;7.66;43.68;99509.63;6203219;28;97479;-64
2023/03/17 06:23:37;;;;;;;;;56.25;44.75;;;;;7.90;43.18;99511.13;6192450;28;96697;-64
2023/03/17 06:26:41;;;;;;;;;55.00;44.00;;;;;8.19;42.60;99516.41;6197648;28;97112;-59
2023/03/17 06:29:46;;;;;;;;;55.80;45.00;;;;;8.48;42.19;99512.78;6265886;27;98435;-60
2023/03/17 06:32:50;;;;;;;;;54.00;44.00;;;;;8.79;41.75;99514.31;6273380;27;96526;-60
2023/03/17 06:35:53;;;;;;;;;56.40;45.80;;;;;9.06;41.46;99516.16;6260548;27;96534;-59
2023/03/17 06:38:56;;;;;;;;;53.00;43.00;;;;;9.36;40.16;99530.19;6277593;27;96302;-60
2023/03/17 06:42:00;;;;;;;;;55.80;44.20;;;;;9.61;39.88;99517.09;6262470;27;97870;-60
2023/03/17 06:45:05;;;;;;;;;56.00;44.00;;;;;9.87;39.27;99509.94;6251706;27;96410;-60
2023/03/17 06:48:09;;;;;;;;;53.00;43.00;;;;;10.27;38.90;99518.16;6184862;28;96491;-60
2023/03/17 06:51:12;;;;;;;;;54.00;43.00;;;;;10.73;37.14;99512.81;6212980;27;96957;-60
2023/03/17 06:54:17;;;;;;;;;53.00;44.00;;;;;11.13;36.95;99524.44;6242786;27;97187;-60
2023/03/17 06:57:20;;;;;;;;;52.20;42.20;;;;;11.58;36.08;99526.16;6277111;27;96570;-60
2023/03/17 07:00:26;;;;;;;;;50.00;42.00;;;;;11.97;35.34;99522.50;6195453;28;96663;-60
2023/03/17 07:03:30;;;;;;;;;51.60;41.80;;;;;12.31;34.68;99520.50;6269742;27;96452;-61
2023/03/17 07:06:33;;;;;;;;;50.60;41.60;;;;;12.54;34.02;99496.41;6258157;27;98515;-61
2023/03/17 07:09:38;;;;;;;;;51.40;42.40;;;;;13.19;32.96;99522.13;6193891;28;96349;-60
2023/03/17 07:12:43;;;;;;;;;50.75;41.00;;;;;13.87;31.96;99509.25;6261150;27;98754;-60
2023/03/17 07:15:48;;;;;;;;;45.20;38.00;;;;;14.46;30.69;99513.06;6257221;27;97093;-60
2023/03/17 07:18:52;;;;;;;;;47.00;38.00;;;;;15.08;29.62;99517.06;6274023;27;96890;-60
2023/03/17 07:21:56;;;;;;;;;43.25;36.25;;;;;15.49;28.79;99516.09;6264453;27;96403;-60
2023/03/17 07:24:59;;;;;;;;;46.00;39.00;;;;;15.96;28.26;99513.31;6242429;27;98366;-60
2023/03/17 07:28:03;;;;;;;;;43.60;35.60;;;;;16.39;28.21;99505.44;6275260;27;96641;-60
2023/03/17 07:31:10;;;;;;;;;45.00;36.60;;;;;16.98;27.10;99505.94;6256107;27;96732;-60
2023/03/17 07:34:14;;;;;;;;;38.60;33.40;;;;;17.35;26.25;99508.94;6191752;28;96468;-60
2023/03/17 07:37:18;;;;;;;;;40.25;35.00;;;;;17.63;25.46;99503.41;6199718;28;96298;-60
2023/03/17 07:40:22;;;;;;;;;44.75;35.00;;;;;18.10;25.02;99503.69;6192496;28;96934;-61
2023/03/17 07:43:27;;;;;;;;;37.60;32.00;;;;;18.33;24.73;99496.28;6273726;27;97510;-61
2023/03/17 07:46:31;;;;;;;;;38.20;33.00;;;;;18.59;24.10;99496.31;6209094;28;96346;-60
2023/03/17 07:49:35;;;;;;;;;38.00;33.00;;;;;19.08;24.03;99493.44;6197479;28;96508;-60
2023/03/17 07:52:44;;;;;;;;;34.80;30.00;;;;;19.59;22.93;99500.09;6264119;27;99790;-60
2023/03/17 07:55:47;;;;;;;;;31.80;29.00;;;;;19.42;21.76;99489.28;6190944;28;96689;-60
2023/03/17 07:58:50;;;;;;;;;27.50;25.25;;;;;19.62;21.91;99493.25;6192539;27;96510;-60
2023/03/17 08:01:58;;;;;;;;;22.00;19.00;;;;;20.13;20.82;99491.56;6192798;27;96344;-60
2023/03/17 08:05:02;;;;;;;;;16.00;15.00;;;;;20.17;19.52;99488.00;6261726;27;97049;-60
2023/03/17 08:08:05;;;;;;;;;15.00;14.00;;;;;20.30;18.79;99482.03;6254761;27;98554;-60
2023/03/17 08:11:09;;;;;;;;;14.33;14.00;;;;;20.35;18.68;99491.34;6257512;27;96551;-61
2023/03/17 08:14:12;;;;;;;;;14.80;12.60;;;;;20.21;19.51;99486.38;6271325;27;96645;-60
2023/03/17 08:17:17;;;;;;;;;18.00;15.00;;;;;20.92;19.68;99483.72;6197563;28;98270;-60
2023/03/17 08:20:20;;;;;;;;;13.80;13.00;;;;;21.40;17.78;99482.34;6276792;27;96508;-60
2023/03/17 08:23:24;;;;;;;;;15.00;13.25;;;;;21.42;17.63;99485.63;6276898;27;96309;-61
2023/03/17 08:26:27;;;;;;;;;16.40;14.00;;;;;21.51;16.67;99483.94;6193088;28;96962;-58
2023/03/17 08:29:31;;;;;;;;;16.00;14.00;;;;;21.92;16.99;99479.16;6269528;27;98432;-58
2023/03/17 08:32:35;;;;;;;;;15.00;14.00;;;;;22.39;16.62;99467.66;6268315;27;96680;-58
2023/03/17 08:35:40;;;;;;;;;14.00;13.00;;;;;23.21;16.57;99479.63;6192284;28;96237;-59
2023/03/17 08:38:45;;;;;;;;;11.50;11.00;;;;;23.06;15.70;99476.25;6265872;27;96944;-58
2023/03/17 08:41:50;;;;;;;;;13.00;10.80;;;;;23.64;15.87;99482.53;6201156;27;97507;-59
2023/03/17 08:44:53;;;;;;;;;12.00;12.00;;;;;24.33;15.92;99481.97;6202485;28;96387;-58
2023/03/17 08:47:58;;;;;;;;;13.40;13.00;;;;;23.49;14.10;99488.22;6272473;27;96552;-58
2023/03/17 08:51:01;;;;;;;;;11.00;10.40;;;;;23.50;14.66;99492.63;6195084;28;97278;-58
2023/03/17 08:54:05;;;;;;;;;13.40;11.40;;;;;23.43;14.81;99483.84;6193147;28;97018;-58
2023/03/17 08:57:09;;;;;;;;;11.50;11.50;;;;;24.11;15.55;99482.50;6258815;27;96648;-59
2023/03/17 09:00:14;;;;;;;;;11.00;9.40;;;;;24.58;14.10;99481.56;6265585;27;98789;-58
2023/03/17 09:03:20;;;;;;;;;9.00;8.50;;;;;24.45;13.67;99479.56;6207985;28;96299;-58
2023/03/17 09:06:25;;;;;;;;;11.40;11.00;;;;;25.04;14.56;99464.28;6210026;28;96860;-58
2023/03/17 09:09:29;;;;;;;;;13.00;11.00;;;;;25.87;14.25;99475.16;6209172;28;96074;-59
2023/03/17 09:12:33;;;;;;;;;11.00;10.00;;;;;26.05;12.98;99469.78;6262673;27;96731;-58
2023/03/17 09:15:37;;;;;;;;;8.00;7.00;;;;;26.28;12.29;99475.13;6198904;28;97870;-59
2023/03/17 09:18:42;;;;;;;;;7.40;7.00;;;;;26.26;12.70;99468.25;6256196;27;96874;-58
2023/03/17 09:21:46;;;;;;;;;8.00;8.00;;;;;26.27;11.61;99459.66;6276510;27;96344;-58
2023/03/17 09:24:49;;;;;;;;;6.50;5.50;;;;;25.91;11.16;99464.28;6208460;28;96360;-58
2023/03/17 09:27:53;;;;;;;;;6.00;6.00;;;;;25.27;11.84;99451.47;6206752;28;96339;-58
2023/03/17 09:30:58;;;;;;;;;7.00;6.00;;;;;24.48;12.24;99451.38;6272885;27;96823;-60
2023/03/17 09:34:03;;;;;;;;;8.00;8.00;;;;;23.87;12.51;99447.84;6209397;28;96567;-59
2023/03/17 09:37:08;;;;;;;;;7.00;6.00;;;;;24.29;12.31;99449.78;6208934;28;96266;-59
2023/03/17 09:40:16;;;;;;;;;6.20;5.00;;;;;24.34;12.49;99446.94;6208755;28;96499;-59
2023/03/17 09:43:29;;;;;;;;;6.00;6.00;;;;;24.02;12.39;99431.94;6208921;28;96283;-60
2023/03/17 09:46:41;;;;;;;;;8.80;7.80;;;;;24.77;12.32;99439.38;6289516;27;96731;-59
2023/03/17 09:49:48;;;;;;;;;5.80;5.20;;;;;25.20;11.96;99442.78;6258912;27;96723;-58
2023/03/17 09:52:52;;;;;;;;;10.00;8.00;;;;;24.89;12.18;99432.28;6207440;28;96306;-59
2023/03/17 09:55:58;;;;;;;;;7.00;6.50;;;;;24.00;12.32;99428.66;6185046;28;96484;-59
2023/03/17 09:59:05;;;;;;;;;7.00;7.00;;;;;23.59;12.31;99430.31;6255543;27;97189;-59
2023/03/17 10:02:19;;;;;;;;;9.00;8.00;;;;;23.29;12.31;99420.44;6256130;27;96244;-61
2023/03/17 10:05:26;;;;;;;;;6.40;5.80;;;;;23.89;12.94;99416.16;6254896;27;98384;-58
2023/03/17 10:08:36;;;;;;;;;6.00;5.20;;;;;24.62;13.32;99412.06;6188162;28;96294;-58
2023/03/17 10:11:42;;;;;;;;;7.00;7.00;;;;;24.71;11.94;99408.31;6253963;27;98227;-59
2023/03/17 10:14:54;;;;;;;;;8.60;6.60;;;;;23.28;12.27;99407.78;6238002;27;98333;-58
2023/03/17 10:17:58;;;;;;;;;10.50;10.00;;;;;23.68;13.40;99401.81;6187827;28;96268;-59
2023/03/17 10:21:06;;;;;;;;;4.75;4.75;;;;;23.33;12.37;99381.03;6187619;27;96374;-59
2023/03/17 10:24:11;;;;;;;;;7.20;7.20;;;;;23.13;12.85;99378.50;6255136;27;96779;-60
2023/03/17 10:27:16;;;;;;;;;8.00;7.40;;;;;22.50;13.06;99385.16;6266788;27;96890;-61
2023/03/17 10:30:22;;;;;;;;;7.00;7.00;;;;;22.67;13.10;99389.13;6278513;27;96594;-62
2023/03/17 10:33:26;;;;;;;;;5.00;5.00;;;;;22.57;13.44;99388.41;6270892;27;96599;-61
2023/03/17 10:36:37;;;;;;;;;6.00;6.00;;;;;22.69;12.54;99388.81;6265456;27;99513;-61
2023/03/17 10:39:47;;;;;;;;;7.00;6.40;;;;;23.31;12.72;99385.19;6252595;27;97101;-61
2023/03/17 10:42:54;;;;;;;;;7.00;7.00;;;;;23.13;12.17;99378.50;6271926;27;98510;-61
2023/03/17 10:46:00;;;;;;;;;8.20;7.40;;;;;22.23;12.86;99372.72;6197649;28;96362;-61
2023/03/17 10:49:09;;;;;;;;;7.00;7.00;;;;;22.89;13.65;99362.00;6245656;27;96512;-60
2023/03/17 10:52:21;;;;;;;;;6.00;6.00;;;;;23.20;12.15;99356.16;6197019;28;96389;-61
2023/03/17 10:55:29;;;;;;;;;7.00;7.00;;;;;22.92;12.35;99344.06;6274132;27;99510;-61
2023/03/17 10:58:38;;;;;;;;;8.00;7.40;;;;;22.76;12.51;99353.63;6272814;27;96656;-61
2023/03/17 11:01:47;;;;;;;;;6.00;6.00;;;;;22.16;12.60;99344.75;6252624;27;99000;-62
2023/03/17 11:04:54;;;;;;;;;8.00;8.00;;;;;22.30;13.35;99342.16;6268240;27;96305;-61
2023/03/17 11:08:09;;;;;;;;;5.80;5.80;;;;;22.35;12.70;99353.13;6264481;27;96654;-60
2023/03/17 11:11:23;;;;;;;;;8.00;7.60;;;;;23.07;13.22;99334.84;6210027;27;96766;-61
2023/03/17 11:14:27;;;;;;;;;8.00;7.25;;;;;23.63;12.36;99326.75;6193298;28;96267;-61
2023/03/17 11:17:48;;;;;;;;;7.00;7.00;;;;;24.07;12.81;99332.69;6271446;27;96859;-61
2023/03/17 11:20:57;;;;;;;;;8.40;7.00;;;;;24.41;12.29;99343.47;6208544;27;96561;-61
2023/03/17 11:24:09;;;;;;;;;5.60;5.60;;;;;24.37;11.45;99334.19;6246018;27;96548;-61
2023/03/17 11:27:20;;;;;;;;;5.60;5.60;;;;;23.89;10.80;99324.44;6267079;27;98685;-61
2023/03/17 11:30:32;;;;;;;;;7.00;6.00;;;;;23.60;10.85;99330.88;6198645;28;96654;-62
2023/03/17 11:33:47;;;;;;;;;7.00;6.25;;;;;22.32;11.09;99329.81;6253657;27;98741;-61
2023/03/17 11:37:01;;;;;;;;;8.00;8.00;;;;;22.54;11.53;99337.56;6251770;27;96823;-61
2023/03/17 11:40:15;;;;;;;;;7.00;7.00;;;;;22.64;11.38;99328.41;6192953;27;96723;-61
2023/03/17 11:43:29;;;;;;;;;6.40;6.00;;;;;22.80;11.48;99321.69;6189645;28;97304;-61
2023/03/17 11:46:42;;;;;;;;;7.00;6.25;;;;;22.92;11.41;99316.59;6280568;27;97298;-60
2023/03/17 11:49:54;;;;;;;;;6.80;5.80;;;;;22.34;11.72;99304.78;6244755;27;98463;-61
2023/03/17 11:53:22;;;;;;;;;8.00;7.00;;;;;22.67;11.24;99287.44;6206806;27;96835;-61
2023/03/17 11:56:37;;;;;;;;;6.00;6.00;;;;;22.50;12.05;99281.56;6269357;27;96450;-61
2023/03/17 11:59:47;;;;;;;;;5.75;5.75;;;;;23.17;11.38;99274.22;6264594;27;96429;-61
2023/03/17 12:02:56;;;;;;;;;8.00;8.00;;;;;23.22;11.86;99276.91;6262774;27;96757;-61
2023/03/17 12:06:04;;;;;;;;;6.00;6.00;;;;;23.99;12.85;99270.03;6274603;27;96306;-60
2023/03/17 12:09:21;;;;;;;;;7.40;7.40;;;;;24.17;11.84;99268.38;6230383;27;97347;-60
2023/03/17 12:12:30;;;;;;;;;6.20;6.20;;;;;24.23;12.15;99269.94;6197205;27;96297;-61
2023/03/17 12:15:38;;;;;;;;;9.00;8.00;;;;;24.14;13.05;99242.22;6263324;27;96455;-61
2023/03/17 12:18:49;;;;;;;;;8.00;8.00;;;;;24.00;12.25;99235.03;6232099;27;96278;-61
2023/03/17 12:21:55;;;;;;;;;7.00;6.00;;;;;24.26;12.40;99246.47;6262287;27;96357;-61
2023/03/17 12:25:09;;;;;;;;;10.00;9.00;;;;;24.16;12.91;99251.03;6210522;27;97712;-61
2023/03/17 12:28:18;;;;;;;;;8.50;7.00;;;;;23.42;13.01;99262.06;6241962;27;96635;-61
2023/03/17 12:31:25;;;;;;;;;9.50;8.50;;;;;23.54;13.48;99251.47;6234198;27;96304;-61
2023/03/17 12:34:37;;;;;;;;;7.25;7.00;;;;;23.83;13.93;99246.59;6193376;27;96440;-61
2023/03/17 12:37:41;;;;;;;;;9.60;8.60;;;;;24.22;13.40;99251.78;6291443;27;96660;-62
2023/03/17 12:41:04;;;;;;;;;8.00;8.00;;;;;23.69;13.59;99243.81;6222219;27;96843;-61
2023/03/17 12:44:29;;;;;;;;;8.00;7.50;;;;;22.76;14.46;99244.47;6214175;27;96453;-61
2023/03/17 12:47:57;;;;;;;;;10.00;9.00;;;;;21.09;15.14;99242.19;6208313;27;96510;-61
2023/03/17 12:51:27;;;;;;;;;7.00;7.00;;;;;20.74;15.20;99235.75;6264194;27;97343;-61
2023/03/17 12:54:33;;;;;;;;;8.40;7.40;;;;;20.99;14.97;99239.50;6219289;27;96788;-60
2023/03/17 12:57:40;;;;;;;;;9.00;9.00;;;;;21.27;15.79;99218.81;6225279;27;97475;-61
2023/03/17 13:00:56;;;;;;;;;9.75;8.00;;;;;21.48;15.94;99209.38;6207851;27;96681;-62
2023/03/17 13:04:14;;;;;;;;;7.00;7.00;;;;;20.61;16.26;99200.75;6268640;27;96979;-60
2023/03/17 13:07:22;;;;;;;;;10.75;9.75;;;;;19.89;16.89;99198.38;6242902;27;96648;-61
2023/03/17 13:10:40;;;;;;;;;9.60;8.00;;;;;19.93;17.42;99195.94;6216672;27;96736;-60
2023/03/17 13:14:14;;;;;;;;;6.80;6.80;;;;;20.24;16.44;99206.56;6211830;27;96342;-60
2023/03/17 13:17:34;;;;;;;;;10.00;9.00;;;;;20.40;17.04;99196.41;6230019;27;96368;-61
2023/03/17 13:20:41;;;;;;;;;8.80;8.40;;;;;20.48;16.56;99195.00;6196629;27;96787;-60
2023/03/17 13:23:46;;;;;;;;;7.25;7.00;;;;;20.09;17.04;99192.06;6275176;27;96779;-60
2023/03/17 13:26:57;;;;;;;;;8.00;8.00;;;;;19.94;17.47;99192.13;6266917;27;96609;-60
2023/03/17 13:30:43;;;;;;;;;10.40;8.00;;;;;19.59;18.41;99201.97;6192880;28;96582;-60
2023/03/17 13:33:55;;;;;;;;;7.20;7.00;;;;;19.70;17.65;99192.66;6203906;27;96859;-60
2023/03/17 13:37:21;;;;;;;;;7.00;7.00;;;;;19.64;17.91;99166.41;6266359;27;97690;-60
2023/03/17 13:40:35;;;;;;;;;9.40;8.60;;;;;19.99;17.23;99189.38;6270630;27;98357;-60
2023/03/17 13:43:51;;;;;;;;;8.00;8.00;;;;;20.15;17.24;99174.53;6240206;27;96869;-60
2023/03/17 13:46:55;;;;;;;;;11.00;9.50;;;;;20.38;17.35;99186.84;6207435;27;96204;-60
2023/03/17 13:50:07;;;;;;;;;7.20;7.00;;;;;20.38;16.95;99181.38;6193772;27;96629;-60
2023/03/17 13:53:13;;;;;;;;;10.60;8.60;;;;;20.27;16.95;99177.81;6262532;27;96346;-61
2023/03/17 13:56:22;;;;;;;;;8.25;8.25;;;;;20.08;16.85;99161.16;6281675;27;96547;-60
2023/03/17 13:59:36;;;;;;;;;8.00;8.00;;;;;19.89;17.33;99165.53;6193753;27;97304;-60
2023/03/17 14:02:40;;;;;;;;;7.00;6.00;;;;;19.77;17.64;99176.78;6216146;27;96564;-61
2023/03/17 14:05:49;;;;;;;;;8.00;7.20;;;;;18.99;17.82;99156.19;6265613;27;96388;-61
2023/03/17 14:08:57;;;;;;;;;8.60;8.00;;;;;19.09;18.21;99156.22;6256747;27;96680;-61
2023/03/17 14:12:08;;;;;;;;;9.00;8.40;;;;;19.07;18.05;99171.22;6268372;27;96539;-60
2023/03/17 14:15:18;;;;;;;;;8.00;7.40;;;;;18.78;18.07;99152.56;6268635;27;96495;-60
2023/03/17 14:18:32;;;;;;;;;10.00;9.00;;;;;18.65;18.30;99160.44;6274409;27;99170;-61
2023/03/17 14:22:22;;;;;;;;;8.00;8.00;;;;;18.44;18.39;99148.56;6235873;27;96344;-60
2023/03/17 14:25:33;;;;;;;;;7.40;7.40;;;;;18.39;18.40;99138.47;6263434;27;96736;-61
2023/03/17 14:28:37;;;;;;;;;8.00;7.00;;;;;18.40;18.43;99136.56;6271828;27;96976;-60
2023/03/17 14:31:42;;;;;;;;;7.00;7.00;;;;;18.19;18.52;99131.00;6289711;27;97939;-61